Time;durP1;ratioP1;P1;durP2;ratioP2;P2;SDS_P1;SDS_P2;PMS_P1;PMS_P2;Temp;Humidity;BMP_temperature;BMP_pressure;BME280_temperature;BME280_humidity;BME280_pressure;Samples;Min_cycle;Max_cycle;Signal;HPM_P1;HPM_P2
2022/03/28 00:01:23;;;;;;;23.95;6.15;;;;;;;6.46;nan;102693.88;5112555;28;20032;-58
2022/03/28 00:03:52;;;;;;;21.58;5.40;;;;;;;6.44;nan;102693.88;5111450;28;20043;-61
2022/03/28 00:06:18;;;;;;;31.48;8.48;;;;;;;6.42;nan;102692.13;5111971;28;20395;-58
2022/03/28 00:08:43;;;;;;;32.83;6.38;;;;;;;6.33;nan;102674.56;5111382;28;20020;-60
2022/03/28 00:11:08;;;;;;;23.85;5.88;;;;;;;6.40;nan;102683.34;5111429;28;20108;-58
2022/03/28 00:13:35;;;;;;;19.45;5.70;;;;;;;6.39;nan;102679.00;5112346;28;20039;-60
2022/03/28 00:16:01;;;;;;;25.67;6.10;;;;;;;6.36;nan;102681.56;5112235;28;20119;-59
2022/03/28 00:18:26;;;;;;;29.92;7.05;;;;;;;6.34;nan;102681.53;5112579;28;20135;-59
2022/03/28 00:20:53;;;;;;;20.73;5.78;;;;;;;6.29;nan;102679.69;5112531;28;20070;-60
2022/03/28 00:23:19;;;;;;;24.15;7.20;;;;;;;6.29;nan;102687.53;5112486;28;20032;-60
2022/03/28 00:25:45;;;;;;;22.17;5.53;;;;;;;6.21;nan;102685.72;5112258;28;20039;-58
2022/03/28 00:28:11;;;;;;;26.23;6.55;;;;;;;6.16;nan;102666.44;5112272;28;20031;-60
2022/03/28 00:30:37;;;;;;;26.50;5.93;;;;;;;5.94;nan;102630.41;5110560;28;20067;-59
2022/03/28 00:33:02;;;;;;;26.40;5.93;;;;;;;6.03;nan;102653.19;5112202;28;20070;-59
2022/03/28 00:35:29;;;;;;;17.80;5.47;;;;;;;5.77;nan;102605.72;5112133;28;20525;-59
2022/03/28 00:37:55;;;;;;;20.48;4.90;;;;;;;6.05;nan;102659.28;5110932;28;20023;-59
2022/03/28 00:40:20;;;;;;;23.00;5.47;;;;;;;5.74;nan;102615.22;5110838;28;20070;-58
2022/03/28 00:42:48;;;;;;;26.08;5.90;;;;;;;6.00;nan;102660.97;5110647;28;20557;-59
2022/03/28 00:45:14;;;;;;;26.08;6.10;;;;;;;5.56;nan;102590.59;5111911;28;20043;-59
2022/03/28 00:47:40;;;;;;;26.33;5.97;;;;;;;5.50;nan;102585.25;5112316;28;20028;-60
2022/03/28 00:50:06;;;;;;;17.83;5.35;;;;;;;5.89;nan;102665.16;5076952;28;20080;-59
2022/03/28 00:52:33;;;;;;;26.38;5.72;;;;;;;5.49;nan;102590.44;5110795;28;20062;-59
2022/03/28 00:54:58;;;;;;;24.95;6.60;;;;;;;5.86;nan;102652.03;5111735;28;20098;-58
2022/03/28 00:57:24;;;;;;;16.25;5.07;;;;;;;5.86;nan;102652.03;5110760;28;20122;-58
2022/03/28 00:59:50;;;;;;;21.65;5.05;;;;;;;5.82;nan;102647.59;5111762;28;20206;-59
2022/03/28 01:02:15;;;;;;;23.40;5.25;;;;;;;5.83;nan;102654.56;5111903;28;20116;-59
2022/03/28 01:04:41;;;;;;;27.63;6.68;;;;;;;5.79;nan;102648.41;5111820;28;20031;-57
2022/03/28 01:07:07;;;;;;;26.23;5.90;;;;;;;5.45;nan;102588.66;5111488;28;20084;-58
2022/03/28 01:09:33;;;;;;;25.88;5.50;;;;;;;5.78;nan;102630.97;5110393;28;20160;-58
2022/03/28 01:11:59;;;;;;;22.13;6.05;;;;;;;5.73;nan;102623.91;5111692;28;20032;-59
2022/03/28 01:14:26;;;;;;;22.23;5.50;;;;;;;5.69;nan;102617.78;5110222;28;20027;-58
2022/03/28 01:19:36;;;;;;;18.38;5.50;;;;;;;5.60;nan;102605.44;5111540;28;20054;-59
2022/03/28 01:22:01;;;;;;;21.83;6.43;;;;;;;5.59;nan;102621.09;5111232;28;20055;-59
2022/03/28 01:24:27;;;;;;;20.65;5.55;;;;;;;5.41;nan;102579.00;5111655;28;20036;-58
2022/03/28 01:26:53;;;;;;;21.67;6.25;;;;;;;5.65;nan;102623.81;5113622;28;20406;-57
2022/03/28 01:29:19;;;;;;;21.83;5.72;;;;;;;5.58;nan;102611.50;5114433;28;20027;-58
2022/03/28 01:31:44;;;;;;;29.33;5.75;;;;;;;5.60;nan;102607.19;5115552;28;20100;-59
2022/03/28 01:34:20;;;;;;;32.53;7.07;;;;;;;5.57;nan;102610.59;5115344;28;20059;-61
2022/03/28 01:36:47;;;;;;;21.77;5.82;;;;;;;5.49;nan;102603.50;5115136;28;20053;-59
2022/03/28 01:39:16;;;;;;;29.58;6.43;;;;;;;5.55;nan;102608.81;5113824;28;20460;-59
2022/03/28 01:41:42;;;;;;;21.25;6.00;;;;;;;5.52;nan;102606.16;5115337;28;20039;-57
2022/03/28 01:44:07;;;;;;;26.38;6.15;;;;;;;5.35;nan;102585.00;5115338;28;20032;-58
2022/03/28 01:46:40;;;;;;;24.55;5.80;;;;;;;5.16;nan;102548.13;5113711;28;20142;-60
2022/03/28 01:49:06;;;;;;;22.30;5.82;;;;;;;5.05;nan;102535.75;5115119;28;20475;-59
2022/03/28 01:51:31;;;;;;;18.00;5.70;;;;;;;5.09;nan;102544.53;5115107;28;20076;-58
2022/03/28 01:53:59;;;;;;;31.50;7.47;;;;;;;5.25;nan;102572.66;5115080;28;20072;-59
2022/03/28 01:56:25;;;;;;;20.23;5.80;;;;;;;5.34;nan;102583.22;5097287;28;20124;-59
2022/03/28 01:58:50;;;;;;;27.00;5.47;;;;;;;5.35;nan;102585.00;5115325;28;20475;-58
2022/03/28 02:01:15;;;;;;;22.70;5.78;;;;;;;5.36;nan;102588.50;5115041;28;20482;-59
2022/03/28 02:03:40;;;;;;;26.42;6.10;;;;;;;5.32;nan;102586.69;5114186;28;20028;-59
2022/03/28 02:06:07;;;;;;;21.00;6.15;;;;;;;5.24;nan;102570.91;5115036;28;20345;-58
2022/03/28 02:08:34;;;;;;;24.20;5.45;;;;;;;5.24;nan;102583.94;5114948;28;20042;-60
2022/03/28 02:10:59;;;;;;;22.02;6.05;;;;;;;5.20;nan;102589.97;5113603;28;20036;-58
2022/03/28 02:13:25;;;;;;;23.42;6.45;;;;;;;5.15;nan;102586.41;5113474;28;20030;-59
2022/03/28 02:15:50;;;;;;;28.38;6.53;;;;;;;5.08;nan;102563.63;5114610;28;20070;-57
2022/03/28 02:18:15;;;;;;;23.67;5.25;;;;;;;4.99;nan;102564.34;5114672;27;20027;-58
2022/03/28 02:20:41;;;;;;;20.70;6.00;;;;;;;5.11;nan;102577.63;5114538;28;20031;-58
2022/03/28 02:23:06;;;;;;;18.98;6.35;;;;;;;5.10;nan;102572.41;5114847;28;20435;-59
2022/03/28 02:25:35;;;;;;;24.80;5.82;;;;;;;5.05;nan;102561.84;5113226;28;20042;-59
2022/03/28 02:28:01;;;;;;;26.73;6.10;;;;;;;4.66;nan;102502.88;5114646;28;20036;-58
2022/03/28 02:30:27;;;;;;;26.27;6.45;;;;;;;4.63;nan;102493.28;5114471;28;20039;-59
2022/03/28 02:32:52;;;;;;;23.65;6.35;;;;;;;5.01;nan;102564.41;5114487;28;20386;-59
2022/03/28 02:35:18;;;;;;;23.85;6.43;;;;;;;4.86;nan;102532.81;5113140;28;20092;-59
2022/03/28 02:37:43;;;;;;;30.48;6.05;;;;;;;4.61;nan;102486.28;5114127;28;20027;-57
2022/03/28 02:40:10;;;;;;;27.13;7.75;;;;;;;4.68;nan;102498.56;5114595;28;20031;-59
2022/03/28 02:42:35;;;;;;;25.95;6.25;;;;;;;4.61;nan;102492.38;5114658;28;20103;-58
2022/03/28 02:45:01;;;;;;;31.40;7.05;;;;;;;4.93;nan;102561.63;5114085;28;20139;-59
2022/03/28 02:47:27;;;;;;;29.40;6.50;;;;;;;4.88;nan;102541.53;5114345;28;20322;-60
2022/03/28 02:49:52;;;;;;;24.55;6.45;;;;;;;4.84;nan;102535.41;5114269;28;20088;-58
2022/03/28 02:52:18;;;;;;;33.80;6.28;;;;;;;4.81;nan;102527.53;5114037;28;20057;-57
2022/03/28 02:54:44;;;;;;;29.98;6.47;;;;;;;4.82;nan;102529.25;5114293;28;20035;-59
2022/03/28 02:57:09;;;;;;;21.17;7.15;;;;;;;4.70;nan;102521.22;5112917;28;20126;-58
2022/03/28 02:59:34;;;;;;;24.23;6.57;;;;;;;4.74;nan;102538.69;5114048;28;20502;-57
2022/03/28 03:02:01;;;;;;;31.00;6.93;;;;;;;4.73;nan;102523.88;5114248;28;20043;-59
2022/03/28 03:04:26;;;;;;;27.80;7.10;;;;;;;4.71;nan;102520.38;5113853;28;20408;-59
2022/03/28 03:06:52;;;;;;;25.05;7.80;;;;;;;4.63;nan;102506.31;5113767;28;20130;-58
2022/03/28 03:09:17;;;;;;;22.90;6.75;;;;;;;4.66;nan;102529.84;5112247;28;20035;-59
2022/03/28 03:11:42;;;;;;;23.17;6.85;;;;;;;4.62;nan;102514.97;5113714;28;20400;-58
2022/03/28 03:14:08;;;;;;;22.23;7.10;;;;;;;4.61;nan;102515.84;5112419;28;20543;-59
2022/03/28 03:16:33;;;;;;;28.05;6.97;;;;;;;4.59;nan;102509.69;5112249;28;20403;-55
2022/03/28 03:18:58;;;;;;;28.35;7.72;;;;;;;4.60;nan;102514.09;5112258;28;20035;-58
2022/03/28 03:21:24;;;;;;;21.23;7.53;;;;;;;4.51;nan;102521.72;5113195;28;20056;-58
2022/03/28 03:23:49;;;;;;;21.88;6.88;;;;;;;4.56;nan;102507.03;5095421;28;20488;-58
2022/03/28 03:26:15;;;;;;;28.15;7.53;;;;;;;4.31;nan;102461.41;5113557;28;20131;-59
2022/03/28 03:28:40;;;;;;;23.00;7.57;;;;;;;4.56;nan;102501.81;5113349;28;20043;-56
2022/03/28 03:31:06;;;;;;;25.67;7.90;;;;;;;4.51;nan;102501.75;5113185;28;20201;-57
2022/03/28 03:33:32;;;;;;;20.08;8.13;;;;;;;4.54;nan;102504.41;5111838;28;20031;-56
2022/03/28 03:36:00;;;;;;;20.63;8.13;;;;;;;4.33;nan;102458.81;5113134;28;20031;-59
2022/03/28 03:38:26;;;;;;;29.70;7.95;;;;;;;3.64;nan;102339.38;5113447;28;20136;-55
2022/03/28 03:40:52;;;;;;;23.65;8.77;;;;;;;4.52;nan;102492.22;5112026;28;20073;-57
2022/03/28 03:43:17;;;;;;;26.48;8.68;;;;;;;4.48;nan;102499.09;5111765;28;20372;-60
2022/03/28 03:45:43;;;;;;;27.98;8.20;;;;;;;4.48;nan;102495.59;5111816;28;20042;-55
2022/03/28 03:48:08;;;;;;;22.08;8.40;;;;;;;4.18;nan;102433.31;5112923;28;20050;-56
2022/03/28 03:50:33;;;;;;;20.95;8.38;;;;;;;4.20;nan;102449.00;5112436;28;20524;-59
2022/03/28 03:52:59;;;;;;;23.27;7.72;;;;;;;4.14;nan;102434.13;5112930;28;20027;-57
2022/03/28 03:55:24;;;;;;;25.40;7.65;;;;;;;4.38;nan;102478.00;5113128;28;20054;-58
2022/03/28 03:57:49;;;;;;;25.23;8.40;;;;;;;4.32;nan;102467.50;5112883;28;20118;-55
2022/03/28 04:00:15;;;;;;;24.90;8.80;;;;;;;4.35;nan;102478.84;5112806;28;20067;-57
2022/03/28 04:02:41;;;;;;;29.23;9.05;;;;;;;4.32;nan;102470.94;5112774;28;20038;-56
2022/03/28 04:05:06;;;;;;;24.50;9.10;;;;;;;4.35;nan;102481.44;5112644;28;20114;-57
2022/03/28 04:07:32;;;;;;;26.08;9.23;;;;;;;4.34;nan;102469.28;5112780;28;20044;-59
2022/03/28 04:10:03;;;;;;;24.35;8.98;;;;;;;4.08;nan;102427.91;5110996;28;20135;-59
2022/03/28 04:12:28;;;;;;;25.05;10.38;;;;;;;4.34;nan;102465.78;5112550;28;20035;-57
2022/03/28 04:14:58;;;;;;;21.77;9.60;;;;;;;4.32;nan;102465.75;5112529;28;20038;-59
2022/03/28 04:17:23;;;;;;;25.60;9.55;;;;;;;4.29;nan;102463.06;5111250;28;20133;-57
2022/03/28 04:19:49;;;;;;;21.83;8.93;;;;;;;4.29;nan;102464.81;5111045;28;20495;-58
2022/03/28 04:22:14;;;;;;;25.67;9.77;;;;;;;4.27;nan;102476.94;5111967;28;20058;-56
2022/03/28 04:24:39;;;;;;;26.17;9.13;;;;;;;4.23;nan;102478.59;5112288;28;20483;-58
2022/03/28 04:27:05;;;;;;;24.30;10.13;;;;;;;4.21;nan;102482.91;5112645;28;20092;-58
2022/03/28 04:29:30;;;;;;;20.42;10.27;;;;;;;4.17;nan;102482.81;5111021;28;20051;-60
2022/03/28 04:31:56;;;;;;;22.35;9.98;;;;;;;4.16;nan;102479.34;5112347;28;20403;-57
2022/03/28 04:34:21;;;;;;;25.70;8.77;;;;;;;4.11;nan;102469.69;5112057;28;20391;-60
2022/03/28 04:36:47;;;;;;;27.77;10.10;;;;;;;4.09;nan;102471.34;5111017;28;20122;-56
2022/03/28 04:39:12;;;;;;;31.35;11.05;;;;;;;4.09;nan;102476.56;5112235;28;20039;-58
2022/03/28 04:41:37;;;;;;;22.67;10.57;;;;;;;3.84;nan;102437.00;5112480;28;20301;-57
2022/03/28 04:44:03;;;;;;;28.85;11.35;;;;;;;3.77;nan;102410.78;5112198;28;20036;-55
2022/03/28 04:46:28;;;;;;;24.77;10.68;;;;;;;3.79;nan;102424.75;5110871;28;20031;-60
2022/03/28 04:48:54;;;;;;;25.35;10.80;;;;;;;4.09;nan;102472.22;5112078;28;20055;-59
2022/03/28 04:51:19;;;;;;;23.30;11.50;;;;;;;3.99;nan;102452.06;5111901;28;20402;-57
2022/03/28 04:53:44;;;;;;;27.92;11.95;;;;;;;3.77;nan;102416.88;5112113;28;20064;-58
2022/03/28 04:56:10;;;;;;;28.27;12.10;;;;;;;3.85;nan;102423.13;5111787;28;20047;-59
2022/03/28 04:58:35;;;;;;;23.42;12.07;;;;;;;4.07;nan;102463.50;5110782;28;20032;-59
2022/03/28 05:01:00;;;;;;;31.52;12.77;;;;;;;4.05;nan;102454.81;5112768;28;20462;-56
2022/03/28 05:03:26;;;;;;;25.65;11.98;;;;;;;4.09;nan;102447.91;5116294;28;20383;-55
2022/03/28 05:05:51;;;;;;;37.28;14.02;;;;;;;3.77;nan;102376.94;5116228;28;20361;-57
2022/03/28 05:08:17;;;;;;;38.35;14.65;;;;;;;4.10;nan;102429.69;5115126;28;20031;-58
2022/03/28 05:10:43;;;;;;;30.58;16.10;;;;;;;4.13;nan;102428.88;5115024;28;20024;-56
2022/03/28 05:13:08;;;;;;;28.13;15.88;;;;;;;4.16;nan;102421.13;5116051;28;20034;-60
2022/03/28 05:15:34;;;;;;;33.10;18.40;;;;;;;4.08;nan;102401.88;5116284;28;20079;-59
2022/03/28 05:18:01;;;;;;;31.30;17.70;;;;;;;4.23;nan;102430.81;5116089;28;20035;-57
2022/03/28 05:20:27;;;;;;;37.10;17.35;;;;;;;4.21;nan;102424.69;5115928;28;20555;-58
2022/03/28 05:26:19;;;;;;;46.08;19.90;;;;;;;4.36;nan;102417.16;5097187;28;20070;-61
2022/03/28 05:28:44;;;;;;;40.00;19.80;;;;;;;4.46;nan;102426.91;5114816;28;20463;-59
2022/03/28 05:31:09;;;;;;;40.22;21.50;;;;;;;4.49;nan;102425.19;5115052;28;20043;-58
2022/03/28 05:33:35;;;;;;;38.03;20.73;;;;;;;4.48;nan;102433.00;5114996;28;20032;-59
2022/03/28 05:36:00;;;;;;;40.72;21.08;;;;;;;4.51;nan;102428.75;5115814;28;20035;-59
2022/03/28 05:38:26;;;;;;;46.25;20.88;;;;;;;4.42;nan;102417.25;5116210;28;20050;-60
2022/03/28 05:40:51;;;;;;;48.15;21.55;;;;;;;4.20;nan;102381.25;5114212;28;20040;-57
2022/03/28 05:43:17;;;;;;;49.40;21.88;;;;;;;4.56;nan;102447.06;5113569;28;20480;-58
2022/03/28 05:45:43;;;;;;;51.28;22.45;;;;;;;4.47;nan;102411.28;5115733;28;20034;-58
2022/03/28 05:48:08;;;;;;;60.53;24.48;;;;;;;4.29;nan;102376.19;5115881;28;20032;-57
2022/03/28 05:50:34;;;;;;;71.45;24.45;;;;;;;4.44;nan;102402.50;5114400;28;20023;-58
2022/03/28 05:52:59;;;;;;;64.43;24.63;;;;;;;4.38;nan;102386.75;5115698;28;20116;-61
2022/03/28 05:55:25;;;;;;;96.72;27.88;;;;;;;4.68;nan;102430.75;5115709;28;20437;-58
2022/03/28 05:57:50;;;;;;;140.23;27.90;;;;;;;4.67;nan;102411.59;5115525;28;20043;-53
2022/03/28 06:00:16;;;;;;;125.63;25.80;;;;;;;4.72;nan;102409.09;5115541;28;20060;-49
2022/03/28 06:02:42;;;;;;;73.38;26.30;;;;;;;4.52;nan;102361.81;5115954;28;20054;-47
2022/03/28 06:05:08;;;;;;;94.90;26.60;;;;;;;4.82;nan;102413.59;5097551;28;20388;-50
2022/03/28 06:07:34;;;;;;;72.70;25.10;;;;;;;4.69;nan;102378.63;5114393;28;20027;-52
2022/03/28 06:09:59;;;;;;;130.43;26.77;;;;;;;4.93;nan;102433.78;5115414;28;20072;-49
2022/03/28 06:12:25;;;;;;;93.95;26.10;;;;;;;4.94;nan;102419.88;5113611;28;20028;-50
2022/03/28 06:14:50;;;;;;;223.98;32.17;;;;;;;4.86;nan;102403.25;5115389;28;20054;-52
2022/03/28 06:17:22;;;;;;;192.52;30.25;;;;;;;4.93;nan;102412.91;5115460;28;20032;-50
2022/03/28 06:19:48;;;;;;;109.68;26.08;;;;;;;4.77;nan;102379.59;5114289;28;20042;-54
2022/03/28 06:22:14;;;;;;;111.25;28.08;;;;;;;5.08;nan;102448.78;5115110;28;20480;-53
2022/03/28 06:24:39;;;;;;;69.50;28.52;;;;;;;5.19;nan;102415.03;5114941;28;20040;-53
2022/03/28 06:27:04;;;;;;;77.65;27.70;;;;;;;5.31;nan;102410.84;5115047;28;20499;-50
2022/03/28 06:29:30;;;;;;;49.55;26.30;;;;;;;5.42;nan;102409.28;5115321;28;20468;-52
2022/03/28 06:31:55;;;;;;;59.28;26.40;;;;;;;5.53;nan;102412.91;5115016;28;20027;-52
2022/03/28 06:34:21;;;;;;;53.70;24.70;;;;;;;5.29;nan;102349.91;5114905;28;20023;-54
2022/03/28 06:36:47;;;;;;;56.75;25.25;;;;;;;5.38;nan;102352.66;5114917;28;20024;-52
2022/03/28 06:39:13;;;;;;;46.60;23.67;;;;;;;5.35;nan;102362.16;5114878;28;20049;-51
2022/03/28 06:41:39;;;;;;;46.20;22.95;;;;;;;5.65;nan;102417.44;5114759;28;20027;-54
2022/03/28 06:44:05;;;;;;;46.95;22.55;;;;;;;5.45;nan;102387.56;5114834;28;20085;-50
2022/03/28 06:46:31;;;;;;;48.85;23.75;;;;;;;5.22;nan;102353.31;5114602;28;20040;-49
2022/03/28 06:48:57;;;;;;;87.75;24.42;;;;;;;5.47;nan;102399.78;5114730;28;20042;-49
2022/03/28 06:51:23;;;;;;;41.25;20.77;;;;;;;5.28;nan;102356.00;5113402;28;20096;-52
2022/03/28 06:53:49;;;;;;;49.00;22.30;;;;;;;5.68;nan;102409.63;5113550;28;20116;-48
2022/03/28 06:56:17;;;;;;;63.05;22.45;;;;;;;5.62;nan;102397.38;5114515;27;20483;-49
2022/03/28 06:58:43;;;;;;;60.42;21.10;;;;;;;5.73;nan;102401.84;5114704;28;20041;-48
2022/03/28 07:01:10;;;;;;;41.85;19.73;;;;;;;5.40;nan;102342.25;5096032;28;20467;-50
2022/03/28 07:03:36;;;;;;;76.93;21.80;;;;;;;5.71;nan;102396.59;5114417;28;20035;-53
2022/03/28 07:06:02;;;;;;;50.28;20.63;;;;;;;5.65;nan;102362.56;5114297;27;20080;-49
2022/03/28 07:08:27;;;;;;;53.88;21.55;;;;;;;5.91;nan;102400.34;5112985;28;20027;-53
2022/03/28 07:10:53;;;;;;;41.97;21.63;;;;;;;6.00;nan;102391.75;5112831;28;20487;-52
2022/03/28 07:13:19;;;;;;;42.17;20.67;;;;;;;6.05;nan;102390.94;5113095;28;20035;-49
2022/03/28 07:15:44;;;;;;;45.97;19.70;;;;;;;6.21;nan;102400.69;5114297;28;20044;-52
2022/03/28 07:18:10;;;;;;;33.83;18.90;;;;;;;6.17;nan;102391.06;5114341;28;20031;-54
2022/03/28 07:20:36;;;;;;;32.60;19.67;;;;;;;6.21;nan;102377.16;5095902;28;20036;-52
2022/03/28 07:23:02;;;;;;;30.48;19.45;;;;;;;6.30;nan;102399.03;5113488;28;20048;-55
2022/03/28 07:25:28;;;;;;;39.78;19.75;;;;;;;6.18;nan;102337.91;5112157;28;20028;-52
2022/03/28 07:27:54;;;;;;;32.60;19.65;;;;;;;6.58;nan;102388.84;5114363;28;20027;-51
2022/03/28 07:30:20;;;;;;;27.38;17.13;;;;;;;6.79;nan;102372.44;5112000;28;20490;-53
2022/03/28 07:32:46;;;;;;;25.38;15.65;;;;;;;6.65;nan;102334.81;5111116;28;20024;-54
2022/03/28 07:35:14;;;;;;;24.58;14.38;;;;;;;7.02;nan;102386.56;5111485;28;20035;-50
2022/03/28 07:37:40;;;;;;;21.70;15.55;;;;;;;6.91;nan;102346.34;5112243;28;20039;-50
2022/03/28 07:40:07;;;;;;;17.33;12.85;;;;;;;7.33;nan;102398.97;5112318;28;20471;-51
2022/03/28 07:42:34;;;;;;;20.42;13.43;;;;;;;7.01;nan;102347.25;5112334;28;20253;-50
2022/03/28 07:45:01;;;;;;;17.23;12.48;;;;;;;7.29;nan;102362.28;5110765;28;20035;-50
2022/03/28 07:47:27;;;;;;;19.67;12.52;;;;;;;7.24;nan;102363.97;5110960;28;20035;-50
2022/03/28 07:49:53;;;;;;;21.67;13.20;;;;;;;7.52;nan;102406.94;5111945;28;20036;-53
2022/03/28 07:52:19;;;;;;;15.82;12.65;;;;;;;7.43;nan;102393.78;5110582;28;20043;-51
2022/03/28 07:54:45;;;;;;;16.35;12.73;;;;;;;7.42;nan;102390.28;5111964;28;20399;-52
2022/03/28 07:57:14;;;;;;;17.65;13.20;;;;;;;7.28;nan;102340.44;5111876;28;20081;-53
2022/03/28 07:59:39;;;;;;;20.52;13.05;;;;;;;7.61;nan;102396.50;5111911;28;20214;-48
2022/03/28 08:02:05;;;;;;;18.45;13.43;;;;;;;7.58;nan;102342.31;5111746;28;20126;-50
2022/03/28 08:04:31;;;;;;;17.80;11.45;;;;;;;7.97;nan;102356.44;5112227;28;20089;-49
2022/03/28 08:06:57;;;;;;;14.02;10.60;;;;;;;8.01;nan;102400.13;5111645;28;20483;-49
2022/03/28 08:09:22;;;;;;;14.60;11.27;;;;;;;8.25;nan;102411.56;5111520;28;20130;-50
2022/03/28 08:11:47;;;;;;;16.95;10.80;;;;;;;7.80;nan;102356.34;5111918;28;20122;-50
2022/03/28 08:14:13;;;;;;;13.95;11.30;;;;;;;7.99;nan;102394.91;5110411;28;20055;-50
2022/03/28 08:16:39;;;;;;;22.48;12.40;;;;;;;7.61;nan;102367.66;5110319;28;20040;-52
2022/03/28 08:19:06;;;;;;;17.70;12.48;;;;;;;7.58;nan;102367.66;5109970;28;20484;-51
2022/03/28 08:21:31;;;;;;;18.75;13.52;;;;;;;7.91;nan;102391.34;5111186;28;20048;-48
2022/03/28 08:23:57;;;;;;;16.70;11.98;;;;;;;8.09;nan;102407.13;5111395;28;20061;-55
2022/03/28 08:26:22;;;;;;;16.05;11.15;;;;;;;7.58;nan;102302.13;5110201;28;20059;-50
2022/03/28 08:28:48;;;;;;;19.25;12.55;;;;;;;8.21;nan;102394.06;5111504;28;20035;-50
2022/03/28 08:31:13;;;;;;;19.92;12.60;;;;;;;7.92;nan;102375.63;5111334;28;20058;-54
2022/03/28 08:33:39;;;;;;;15.65;12.75;;;;;;;8.19;nan;102392.31;5109959;28;20119;-50
2022/03/28 08:36:04;;;;;;;18.20;12.65;;;;;;;8.15;nan;102404.53;5111008;28;20043;-52
2022/03/28 08:38:31;;;;;;;18.13;11.45;;;;;;;8.26;nan;102388.84;5111228;28;20474;-53
2022/03/28 08:40:57;;;;;;;19.42;11.88;;;;;;;8.05;nan;102338.97;5111304;28;20039;-51
2022/03/28 08:43:24;;;;;;;17.35;11.00;;;;;;;8.06;nan;102344.19;5111123;28;20032;-49
2022/03/28 08:45:50;;;;;;;19.77;13.68;;;;;;;8.51;nan;102387.13;5109703;28;20476;-50
2022/03/28 08:48:16;;;;;;;20.85;12.55;;;;;;;8.42;nan;102367.00;5109767;28;20039;-52
2022/03/28 08:50:45;;;;;;;13.85;11.63;;;;;;;8.62;nan;102386.25;5109384;28;20391;-50
2022/03/28 08:53:11;;;;;;;17.00;11.98;;;;;;;8.23;nan;102336.38;5111024;28;20468;-52
2022/03/28 08:55:43;;;;;;;16.70;12.45;;;;;;;8.49;nan;102380.13;5111183;28;20153;-49
2022/03/28 08:58:09;;;;;;;17.02;12.20;;;;;;;8.56;nan;102375.75;5092725;28;20058;-49
2022/03/28 09:00:34;;;;;;;18.08;12.57;;;;;;;8.72;nan;102376.66;5109693;28;20046;-54
2022/03/28 09:03:00;;;;;;;21.02;12.02;;;;;;;9.45;nan;102312.56;5110888;28;20511;-52
2022/03/28 09:05:33;;;;;;;13.00;9.85;;;;;;;11.00;nan;102369.38;5110885;28;20051;-48
2022/03/28 09:08:00;;;;;;;15.10;9.45;;;;;;;11.49;nan;102396.94;5111189;28;20440;-53
2022/03/28 09:10:32;;;;;;;18.23;10.35;;;;;;;11.31;nan;102365.50;5110845;28;20487;-54
2022/03/28 09:13:08;;;;;;;19.63;10.13;;;;;;;11.82;nan;102412.38;5109607;28;20036;-52
2022/03/28 09:15:45;;;;;;;13.95;10.32;;;;;;;11.56;nan;102403.88;5109445;28;20031;-51
2022/03/28 09:18:39;;;;;;;14.00;10.45;;;;;;;11.25;nan;102405.13;5110789;28;20031;-54
2022/03/28 09:21:07;;;;;;;17.17;11.10;;;;;;;10.98;nan;102336.88;5109964;28;20511;-52
2022/03/28 09:23:38;;;;;;;15.88;11.05;;;;;;;12.31;nan;102402.06;5110815;28;20034;-54
2022/03/28 09:26:22;;;;;;;15.77;10.00;;;;;;;13.64;nan;102419.13;5110773;28;20027;-54
2022/03/28 09:28:50;;;;;;;13.63;10.48;;;;;;;14.53;nan;102404.84;5111017;28;20084;-52
2022/03/28 09:31:36;;;;;;;19.50;10.32;;;;;;;15.04;nan;102433.59;5110795;28;20077;-51
2022/03/28 09:34:01;;;;;;;14.07;10.13;;;;;;;15.95;nan;102442.59;5110778;28;20028;-56
2022/03/28 09:36:52;;;;;;;11.88;9.52;;;;;;;16.44;nan;102439.31;5110824;28;20050;-57
2022/03/28 09:39:34;;;;;;;12.80;9.63;;;;;;;16.93;nan;102412.03;5109911;28;20051;-56
2022/03/28 09:42:05;;;;;;;13.55;10.07;;;;;;;17.44;nan;102412.00;5109490;28;20433;-53
2022/03/28 09:44:43;;;;;;;12.00;9.52;;;;;;;17.89;nan;102436.13;5110365;28;20440;-50
2022/03/28 09:47:17;;;;;;;14.23;10.32;;;;;;;17.68;nan;102424.47;5111594;28;20038;-55
2022/03/28 09:49:44;;;;;;;15.02;10.60;;;;;;;17.76;nan;102434.81;5114659;28;20023;-54
2022/03/28 09:52:14;;;;;;;13.05;10.98;;;;;;;17.16;nan;102382.00;5114520;28;20051;-51
2022/03/28 09:54:51;;;;;;;14.38;10.93;;;;;;;17.86;nan;102422.91;5096090;28;20043;-56
2022/03/28 09:57:25;;;;;;;15.48;11.15;;;;;;;17.75;nan;102419.75;5114205;28;20042;-50
2022/03/28 09:59:52;;;;;;;16.48;11.48;;;;;;;18.25;nan;102404.50;5114477;28;20477;-52
2022/03/28 10:02:24;;;;;;;19.15;10.98;;;;;;;18.22;nan;102401.97;5113069;28;20035;-53
2022/03/28 10:04:52;;;;;;;15.48;11.35;;;;;;;18.81;nan;102343.53;5114152;28;20031;-55
2022/03/28 10:07:18;;;;;;;16.30;12.13;;;;;;;19.34;nan;102403.47;5112938;28;20078;-53
2022/03/28 10:09:44;;;;;;;15.73;11.20;;;;;;;19.62;nan;102403.13;5112768;28;20472;-55
2022/03/28 10:12:10;;;;;;;14.52;11.23;;;;;;;19.30;nan;102353.81;5112700;28;20047;-54
2022/03/28 10:14:36;;;;;;;14.63;11.65;;;;;;;19.34;nan;102386.59;5113744;28;20172;-58
2022/03/28 10:17:04;;;;;;;17.80;12.25;;;;;;;19.90;nan;102386.72;5112951;28;20436;-54
2022/03/28 10:19:37;;;;;;;18.33;11.38;;;;;;;20.02;nan;102389.66;5113924;28;20039;-54
2022/03/28 10:22:09;;;;;;;14.70;12.05;;;;;;;20.14;nan;102356.13;5113780;28;20054;-54
2022/03/28 10:24:35;;;;;;;14.75;12.18;;;;;;;20.73;nan;102378.16;5112511;28;20042;-56
2022/03/28 10:27:02;;;;;;;16.77;12.35;;;;;;;20.45;nan;102387.63;5112662;28;20077;-55
2022/03/28 10:29:42;;;;;;;19.00;11.50;;;;;;;20.20;nan;102386.09;5113718;28;20601;-56
2022/03/28 10:32:19;;;;;;;15.40;11.85;;;;;;;20.16;nan;102381.88;5113666;28;20111;-55
2022/03/28 10:34:52;;;;;;;14.38;11.23;;;;;;;20.16;nan;102378.31;5113422;28;20463;-59
2022/03/28 10:37:24;;;;;;;13.52;11.57;;;;;;;19.78;nan;102331.16;5113197;28;20028;-58
2022/03/28 10:39:49;;;;;;;15.15;11.13;;;;;;;20.21;nan;102347.75;5095185;28;20464;-58
2022/03/28 10:42:24;;;;;;;15.23;10.45;;;;;;;19.85;nan;102313.91;5112261;28;20042;-58
2022/03/28 10:45:05;;;;;;;17.98;12.38;;;;;;;19.51;nan;102311.94;5113308;28;20083;-59
2022/03/28 10:47:43;;;;;;;18.65;12.30;;;;;;;19.73;nan;102360.75;5112986;28;20043;-58
2022/03/28 10:50:15;;;;;;;19.13;13.05;;;;;;;18.84;nan;102306.94;5113127;28;20057;-58
2022/03/28 10:53:16;;;;;;;18.52;11.90;;;;;;;19.30;nan;102356.47;5113050;28;20057;-59
2022/03/28 10:55:43;;;;;;;;;;;;;;;20.00;nan;102353.25;5112332;28;20480;-57
2022/03/28 10:58:13;;;;;;;19.20;12.95;;;;;;;20.54;nan;102353.28;5112240;28;19914;-58
2022/03/28 11:00:38;;;;;;;17.00;11.82;;;;;;;20.76;nan;102350.38;5112184;28;20035;-58
2022/03/28 11:03:04;;;;;;;19.55;11.95;;;;;;;20.76;nan;102321.81;5111112;28;20504;-59
2022/03/28 11:05:31;;;;;;;14.07;10.95;;;;;;;20.83;nan;102300.09;5112839;28;20070;-59
2022/03/28 11:08:36;;;;;;;17.63;11.27;;;;;;;20.83;nan;102345.56;5112370;28;20032;-57
2022/03/28 11:11:24;;;;;;;16.92;11.80;;;;;;;20.61;nan;102337.75;5112423;28;20049;-55
2022/03/28 11:13:57;;;;;;;14.02;10.90;;;;;;;20.52;nan;102333.75;5112958;28;20120;-58
2022/03/28 11:16:44;;;;;;;16.92;11.43;;;;;;;20.69;nan;102331.06;5112427;28;20445;-58
2022/03/28 11:19:24;;;;;;;17.98;11.25;;;;;;;21.02;nan;102332.97;5112712;28;20187;-58
2022/03/28 11:22:10;;;;;;;15.45;10.82;;;;;;;20.71;nan;102294.44;5112388;28;20065;-59
2022/03/28 11:24:57;;;;;;;14.40;11.35;;;;;;;21.23;nan;102329.19;5112780;28;20155;-58
2022/03/28 11:27:30;;;;;;;18.00;10.98;;;;;;;20.90;nan;102293.47;5112607;28;20031;-58
2022/03/28 11:30:05;;;;;;;15.45;10.48;;;;;;;21.35;nan;102323.19;5112641;28;20042;-57
2022/03/28 11:32:32;;;;;;;15.95;10.98;;;;;;;21.54;nan;102272.16;5112446;28;20038;-59
2022/03/28 11:34:59;;;;;;;16.42;11.02;;;;;;;21.68;nan;102307.94;5112561;28;20365;-59
2022/03/28 11:37:26;;;;;;;20.85;11.15;;;;;;;21.75;nan;102300.41;5110914;28;20471;-59
2022/03/28 11:40:04;;;;;;;17.75;11.15;;;;;;;21.56;nan;102264.88;5110998;28;20151;-59
2022/03/28 11:42:31;;;;;;;19.70;11.85;;;;;;;21.24;nan;102280.91;5112406;28;20038;-59